Αναφορές METAR

 

LGTS - Thessaloniki/Mik, Greece
Απόσταση από το σταθμό: ΝΝΔ 77km
Ενημερώθηκε: 20/08/2017 10:50
Αίθριος
Αίθριος
 Ανεμος από ΒΔ
Ανεμος: ΒΔ 11 km/h
Θερμοκρασία: 28°C
Heat Index: 28°C
Σημείο Δρόσου: 15°C
Υγρασία: 45%
Βαρόμετρο: 1013 hPa
Summary: Αίθριος
Ορατότητα: greater than 10 km
2017/08/20 07:50 LGTS 200750Z 32006KT CAVOK 28/15 Q1013 NOSIG
LGKV - Kavala/Chrisoupo, Greece
Απόσταση από το σταθμό: ΑΝΑ 120km
Ενημερώθηκε: 20/08/2017 10:50
Αίθριος
Αίθριος
 Ανεμος από Α
Ανεμος: Α 9 km/h
Θερμοκρασία: 30°C
Heat Index: 29°C
Σημείο Δρόσου: 15°C
Υγρασία: 40%
Βαρόμετρο: 1013 hPa
Summary: Αίθριος
Ορατότητα: greater than 10 km
2017/08/20 07:50 LGKV 200750Z 10005KT CAVOK 30/15 Q1013
 
LGKZ - Kozani (civ/Army, Greece
Απόσταση από το σταθμό: ΝΔ 154km
Ενημερώθηκε: 20/08/2017 10:50
Αίθριος
Αίθριος
 Ανεμος από calm
Ανεμος: Απνοια
Θερμοκρασία: 27°C
Σημείο Δρόσου: 10°C
Υγρασία: 34%
Βαρόμετρο: 1017 hPa
Summary: Αίθριος
Ορατότητα: greater than 10 km
2017/08/20 07:50 LGKZ 200750Z 00000KT CAVOK 27/10 Q1017
LWSK - Skopje/Petrovac, Macedonia
Απόσταση από το σταθμό: ΔΒΔ 159km
Ενημερώθηκε: 20/08/2017 11:00
Αίθριος
Αίθριος
 Ανεμος από ΒΔ
Ανεμος: ΒΔ 4 km/h
Θερμοκρασία: 25°C
Σημείο Δρόσου: 11°C
Υγρασία: 42%
Βαρόμετρο: 1015 hPa
Summary: Αίθριος
Ορατότητα: greater than 10 km
2017/08/20 08:00 LWSK 200800Z 32002KT CAVOK 25/11 Q1015 NOSIG
 
LBSF - Sofia (observato, Bulgaria
Απόσταση από το σταθμό: Β 164km
Ενημερώθηκε: 20/08/2017 10:30
Αίθριος
Αίθριος
 Ανεμος από μεταβλητός
Ανεμος: μεταβλητός 4 km/h
Θερμοκρασία: 25°C
Σημείο Δρόσου: 12°C
Υγρασία: 44%
Βαρόμετρο: 1017 hPa
Summary: Αίθριος
Ορατότητα: greater than 10 km
2017/08/20 07:30 LBSF 200730Z VRB02KT CAVOK 25/12 Q1017 NOSIG
LBPD - Plovdiv, Bulgaria
Απόσταση από το σταθμό: ΒΑ 168km
Ενημερώθηκε: 20/08/2017 10:30
Αίθριος
Αίθριος
 Ανεμος από ΔΒΔ
Ανεμος: ΔΒΔ 13 km/h
Θερμοκρασία: 27°C
Σημείο Δρόσου: 12°C
Υγρασία: 39%
Βαρόμετρο: 1015 hPa
Νέφωση: Αίθριος
Ορατότητα: 10 km
2017/08/20 07:30 LBPD 200730Z AUTO 29007KT 260V330 9999 NCD 27/12 Q1015 NOSIG
 
LWOH - Ohrid, Macedonia
Απόσταση από το σταθμό: Δ 204km
Ενημερώθηκε: 20/08/2017 10:30
Μερικώς Νεφελώδης
Μερικώς Νεφελώδης
 Ανεμος από μεταβλητός
Ανεμος: μεταβλητός 2 km/h
Θερμοκρασία: 25°C
Σημείο Δρόσου: 11°C
Υγρασία: 42%
Βαρόμετρο: 1017 hPa
Νέφωση: Μερικώς Νεφελώδης
Ορατότητα: 10 km
Λεπτομέρειες νέφωσης: Διάσπαρτα Νέφη 1219 m
Μερικώς Νεφελώδης 2743 m
2017/08/20 07:30 LWOH 200730Z VRB01KT 9999 FEW040 SCT090 25/11 Q1017
LGLM - Limnos Island Ar, Greece
Απόσταση από το σταθμό: ΝΑ 220km
Ενημερώθηκε: 20/08/2017 10:50
Αίθριος
Αίθριος
 Ανεμος από ΒΑ
Ανεμος: ΒΑ 20 km/h
Θερμοκρασία: 27°C
Heat Index: 28°C
Σημείο Δρόσου: 19°C
Υγρασία: 62%
Βαρόμετρο: 1013 hPa
Summary: Αίθριος
Ορατότητα: greater than 10 km
2017/08/20 07:50 LGLM 200750Z 05011KT CAVOK 27/19 Q1013
 
LGBL - Nea Anchialos, Greece
Απόσταση από το σταθμό: Ν 221km
Ενημερώθηκε: 20/08/2017 10:50
Αίθριος
Αίθριος
 Ανεμος από calm
Ανεμος: Απνοια
Θερμοκρασία: 31°C
Σημείο Δρόσου: 9°C
Υγρασία: 25%
Βαρόμετρο: 1013 hPa
Summary: Αίθριος
Ορατότητα: greater than 10 km
2017/08/20 07:50 LGBL 200750Z 00000KT CAVOK 31/09 Q1013
LGSK - Skiathos Island, Greece
Απόσταση από το σταθμό: Ν 223km
Ενημερώθηκε: 20/08/2017 10:50
Αίθριος
Αίθριος
 Ανεμος από Β
Ανεμος: Β 7 km/h
Θερμοκρασία: 29°C
Heat Index: 29°C
Σημείο Δρόσου: 17°C
Υγρασία: 48%
Βαρόμετρο: 1012 hPa
Summary: Αίθριος
Ορατότητα: greater than 10 km
2017/08/20 07:50 LGSK 200750Z 01004KT CAVOK 29/17 Q1012
 
LGAL - Alexandroupolis, Greece
Απόσταση από το σταθμό: Α 231km
Ενημερώθηκε: 20/08/2017 09:50
Αίθριος
Αίθριος
 Ανεμος από Β
Ανεμος: Β 15 km/h
Θερμοκρασία: 27°C
Heat Index: 27°C
Σημείο Δρόσου: 15°C
Υγρασία: 48%
Βαρόμετρο: 1013 hPa
Summary: Αίθριος
Ορατότητα: greater than 10 km
2017/08/20 06:50 LGAL 200650Z 36008KT CAVOK 27/15 Q1013
BKPR - Prishtina, Yugoslavia
Απόσταση από το σταθμό: ΒΔ 240km
Ενημερώθηκε: 20/08/2017 11:00
Μερικώς Νεφελώδης
Μερικώς Νεφελώδης
 Ανεμος από μεταβλητός
Ανεμος: μεταβλητός 6 km/h
Θερμοκρασία: 22°C
Σημείο Δρόσου: 9°C
Υγρασία: 44%
Βαρόμετρο: 1016 hPa
Νέφωση: Μερικώς Νεφελώδης
Ορατότητα: 10 km
Λεπτομέρειες νέφωσης: Μερικώς Νεφελώδης 2438 m
2017/08/20 08:00 BKPR 200800Z VRB03KT 9999 SCT080 22/09 Q1016 NOSIG
 
LGIO - Ioannina, Greece
Απόσταση από το σταθμό: ΝΔ 262km
Ενημερώθηκε: 20/08/2017 10:50
Διάσπαρτα Νέφη
Διάσπαρτα Νέφη
 Ανεμος από μεταβλητός
Ανεμος: μεταβλητός 0 km/h
Θερμοκρασία: 27°C
Heat Index: 27°C
Σημείο Δρόσου: 14°C
Υγρασία: 45%
Βαρόμετρο: 1017 hPa
Νέφωση: Διάσπαρτα Νέφη
Ορατότητα: 10 km
Λεπτομέρειες νέφωσης: Διάσπαρτα Νέφη 1067 m
2017/08/20 07:50 LGIO 200750Z /////KT 9999 FEW035 27/14 Q1017
LYNI - Nis, Yugoslavia
Απόσταση από το σταθμό: ΒΒΔ 262km
Ενημερώθηκε: 20/08/2017 10:30
Αίθριος
Αίθριος
 Ανεμος από ΒΒΔ
Ανεμος: ΒΒΔ 30 km/h
Θερμοκρασία: 26°C
Σημείο Δρόσου: 11°C
Υγρασία: 39%
Βαρόμετρο: 1015 hPa
Summary: Αίθριος
Ορατότητα: greater than 10 km
2017/08/20 07:30 LYNI 200730Z 33016KT CAVOK 26/11 Q1015 NOSIG
 
LGSY - Skiros, Greece
Απόσταση από το σταθμό: ΝΝΑ 268km
Ενημερώθηκε: 20/08/2017 10:50
Αίθριος
Αίθριος
 Ανεμος από ΒΑ
Ανεμος: ΒΑ 13 km/h
Θερμοκρασία: 27°C
Heat Index: 28°C
Σημείο Δρόσου: 19°C
Υγρασία: 62%
Βαρόμετρο: 1012 hPa
Summary: Αίθριος
Ορατότητα: greater than 10 km
2017/08/20 07:50 LGSY 200750Z 05007KT CAVOK 27/19 Q1012 BLU
LATI - Tirana, Albania
Απόσταση από το σταθμό: Δ 290km
Ενημερώθηκε: 20/08/2017 10:50
Αίθριος
Αίθριος
 Ανεμος από μεταβλητός
Ανεμος: μεταβλητός 4 km/h
Θερμοκρασία: 33°C
Σημείο Δρόσου: 12°C
Υγρασία: 28%
Βαρόμετρο: 1013 hPa
Summary: Αίθριος
Ορατότητα: greater than 10 km
2017/08/20 07:50 LATI 200750Z VRB02KT CAVOK 33/12 Q1013 NOSIG
 
LBGO - Gorna Orechovist, Bulgaria
Απόσταση από το σταθμό: ΒΑ 300km
Ενημερώθηκε: 20/08/2017 10:30
Αίθριος
Αίθριος
 Ανεμος από calm
Ανεμος: Απνοια
Θερμοκρασία: 25°C
Σημείο Δρόσου: 14°C
Υγρασία: 51%
Βαρόμετρο: 1015 hPa
Νέφωση: Αίθριος
Ορατότητα: 10 km
2017/08/20 07:30 LBGO 200730Z AUTO 00000KT 9999 NCD 25/14 Q1015 NOSIG
LGPZ - Preveza/Aktion, Greece
Απόσταση από το σταθμό: ΝΔ 328km
Ενημερώθηκε: 20/08/2017 10:50
Διάσπαρτα Νέφη
Διάσπαρτα Νέφη
 Ανεμος από calm
Ανεμος: Απνοια
Θερμοκρασία: 29°C
Heat Index: 30°C
Σημείο Δρόσου: 19°C
Υγρασία: 55%
Βαρόμετρο: 1013 hPa
Νέφωση: Διάσπαρτα Νέφη
Ορατότητα: 10 km
Λεπτομέρειες νέφωσης: Διάσπαρτα Νέφη 762 m
2017/08/20 07:50 LGPZ 200750Z 00000KT 9999 FEW025 29/19 Q1013
 
LGKR - Ioannis Kapodist, Greece
Απόσταση από το σταθμό: ΔΝΔ 330km
Ενημερώθηκε: 20/08/2017 10:50
Διάσπαρτα Νέφη
Διάσπαρτα Νέφη
 Ανεμος από ΝΝΑ
Ανεμος: ΝΝΑ 9 km/h
Θερμοκρασία: 29°C
Heat Index: 31°C
Σημείο Δρόσου: 20°C
Υγρασία: 58%
Βαρόμετρο: 1013 hPa
Νέφωση: Διάσπαρτα Νέφη
Ορατότητα: 10 km
Λεπτομέρειες νέφωσης: Διάσπαρτα Νέφη 762 m
2017/08/20 07:50 LGKR 200750Z 15005KT 9999 FEW025 29/20 Q1013 NOSIG
LGEL - Elefsis (hel-Afb, Greece
Απόσταση από το σταθμό: Ν 347km
Ενημερώθηκε: 20/08/2017 10:50
Αίθριος
Αίθριος
 Ανεμος από Β
Ανεμος: Β 19 km/h, Ριπή: 37 km/h
Θερμοκρασία: 33°C
Σημείο Δρόσου: 9°C
Υγρασία: 23%
Βαρόμετρο: 1012 hPa
Summary: Αίθριος
Ορατότητα: greater than 10 km
2017/08/20 07:50 LGEL 200750Z 35010G20KT CAVOK 33/09 Q1012


 ♦     ♦     ♦     Ποτέ μη βασίζετε κρίσιμες αποφάσεις σ'αυτές ή οποιεσδήποτε πληροφορίες καιρού από το Internet     ♦     ♦     ♦